sensor_id;sensor_type;location;lat;lon;timestamp;temperature;humidity
32753;DHT22;19121;52.428;10.816;2023-04-21T00:00:49;20.00;42.10
32753;DHT22;19121;52.428;10.816;2023-04-21T00:03:16;19.90;42.00
32753;DHT22;19121;52.428;10.816;2023-04-21T00:05:41;19.90;42.00
32753;DHT22;19121;52.428;10.816;2023-04-21T00:08:07;19.90;42.00
32753;DHT22;19121;52.428;10.816;2023-04-21T00:10:33;19.90;42.10
32753;DHT22;19121;52.428;10.816;2023-04-21T00:12:59;19.90;42.00
32753;DHT22;19121;52.428;10.816;2023-04-21T00:15:24;19.90;42.10
32753;DHT22;19121;52.428;10.816;2023-04-21T00:17:50;19.90;42.10
32753;DHT22;19121;52.428;10.816;2023-04-21T00:20:15;19.90;42.00
32753;DHT22;19121;52.428;10.816;2023-04-21T00:22:40;19.90;42.10
32753;DHT22;19121;52.428;10.816;2023-04-21T00:25:06;19.90;42.10
32753;DHT22;19121;52.428;10.816;2023-04-21T00:27:31;19.90;42.00
32753;DHT22;19121;52.428;10.816;2023-04-21T00:29:57;19.90;42.10
32753;DHT22;19121;52.428;10.816;2023-04-21T00:32:22;19.90;42.10
32753;DHT22;19121;52.428;10.816;2023-04-21T00:34:48;19.90;42.10
32753;DHT22;19121;52.428;10.816;2023-04-21T00:37:13;19.90;42.10
32753;DHT22;19121;52.428;10.816;2023-04-21T00:39:38;19.80;42.10
32753;DHT22;19121;52.428;10.816;2023-04-21T00:42:04;19.80;42.00
32753;DHT22;19121;52.428;10.816;2023-04-21T00:44:29;19.80;42.10
32753;DHT22;19121;52.428;10.816;2023-04-21T00:46:55;19.80;42.10
32753;DHT22;19121;52.428;10.816;2023-04-21T00:49:21;19.80;42.10
32753;DHT22;19121;52.428;10.816;2023-04-21T00:51:46;19.80;42.10
32753;DHT22;19121;52.428;10.816;2023-04-21T00:54:12;19.80;42.10
32753;DHT22;19121;52.428;10.816;2023-04-21T00:56:38;19.80;42.10
32753;DHT22;19121;52.428;10.816;2023-04-21T00:59:03;19.80;42.20
32753;DHT22;19121;52.428;10.816;2023-04-21T01:01:29;19.80;42.10
32753;DHT22;19121;52.428;10.816;2023-04-21T01:03:58;19.70;42.10
32753;DHT22;19121;52.428;10.816;2023-04-21T01:06:26;19.80;42.10
32753;DHT22;19121;52.428;10.816;2023-04-21T01:08:52;19.70;42.10
32753;DHT22;19121;52.428;10.816;2023-04-21T01:11:18;19.70;42.10
32753;DHT22;19121;52.428;10.816;2023-04-21T01:13:43;19.70;42.10
32753;DHT22;19121;52.428;10.816;2023-04-21T01:16:09;19.70;42.10
32753;DHT22;19121;52.428;10.816;2023-04-21T01:18:40;19.70;42.10
32753;DHT22;19121;52.428;10.816;2023-04-21T01:21:05;19.70;42.10
32753;DHT22;19121;52.428;10.816;2023-04-21T01:23:31;19.70;42.10
32753;DHT22;19121;52.428;10.816;2023-04-21T01:25:57;19.70;42.10
32753;DHT22;19121;52.428;10.816;2023-04-21T01:28:23;19.70;42.10
32753;DHT22;19121;52.428;10.816;2023-04-21T01:30:48;19.70;42.10
32753;DHT22;19121;52.428;10.816;2023-04-21T01:33:14;19.70;42.10
32753;DHT22;19121;52.428;10.816;2023-04-21T01:35:39;19.70;42.10
32753;DHT22;19121;52.428;10.816;2023-04-21T01:38:05;19.70;42.10
32753;DHT22;19121;52.428;10.816;2023-04-21T01:40:30;19.70;42.10
32753;DHT22;19121;52.428;10.816;2023-04-21T01:42:56;19.70;42.10
32753;DHT22;19121;52.428;10.816;2023-04-21T01:45:21;19.70;42.10
32753;DHT22;19121;52.428;10.816;2023-04-21T01:47:47;19.70;42.10
32753;DHT22;19121;52.428;10.816;2023-04-21T01:50:12;19.70;42.20
32753;DHT22;19121;52.428;10.816;2023-04-21T01:52:38;19.70;42.20
32753;DHT22;19121;52.428;10.816;2023-04-21T01:55:03;19.60;42.10
32753;DHT22;19121;52.428;10.816;2023-04-21T01:57:29;19.60;42.10
32753;DHT22;19121;52.428;10.816;2023-04-21T01:59:54;19.60;42.10
32753;DHT22;19121;52.428;10.816;2023-04-21T02:02:20;19.60;42.10
32753;DHT22;19121;52.428;10.816;2023-04-21T02:04:46;19.60;42.10
32753;DHT22;19121;52.428;10.816;2023-04-21T02:07:11;19.60;42.10
32753;DHT22;19121;52.428;10.816;2023-04-21T02:09:36;19.60;42.10
32753;DHT22;19121;52.428;10.816;2023-04-21T02:12:02;19.60;42.20
32753;DHT22;19121;52.428;10.816;2023-04-21T02:14:28;19.60;42.30
32753;DHT22;19121;52.428;10.816;2023-04-21T02:16:53;19.60;42.40
32753;DHT22;19121;52.428;10.816;2023-04-21T02:19:20;19.60;42.30
32753;DHT22;19121;52.428;10.816;2023-04-21T02:21:45;19.60;42.30
32753;DHT22;19121;52.428;10.816;2023-04-21T02:24:11;19.60;42.30
32753;DHT22;19121;52.428;10.816;2023-04-21T02:26:36;19.60;42.30
32753;DHT22;19121;52.428;10.816;2023-04-21T02:29:02;19.60;42.20
32753;DHT22;19121;52.428;10.816;2023-04-21T02:31:27;19.70;42.30
32753;DHT22;19121;52.428;10.816;2023-04-21T02:33:53;19.70;42.30
32753;DHT22;19121;52.428;10.816;2023-04-21T02:36:18;19.70;42.30
32753;DHT22;19121;52.428;10.816;2023-04-21T02:38:44;19.70;42.30
32753;DHT22;19121;52.428;10.816;2023-04-21T02:41:10;19.70;42.20
32753;DHT22;19121;52.428;10.816;2023-04-21T02:43:35;19.70;42.20
32753;DHT22;19121;52.428;10.816;2023-04-21T02:46:06;19.70;42.20
32753;DHT22;19121;52.428;10.816;2023-04-21T02:48:32;19.70;42.20
32753;DHT22;19121;52.428;10.816;2023-04-21T02:50:58;19.80;42.20
32753;DHT22;19121;52.428;10.816;2023-04-21T02:53:23;19.80;42.20
32753;DHT22;19121;52.428;10.816;2023-04-21T02:55:48;19.80;42.20
32753;DHT22;19121;52.428;10.816;2023-04-21T02:58:14;19.80;42.20
32753;DHT22;19121;52.428;10.816;2023-04-21T03:00:40;19.80;42.20
32753;DHT22;19121;52.428;10.816;2023-04-21T03:03:06;19.80;42.20
32753;DHT22;19121;52.428;10.816;2023-04-21T03:05:31;19.80;42.20
32753;DHT22;19121;52.428;10.816;2023-04-21T03:07:57;19.80;42.20
32753;DHT22;19121;52.428;10.816;2023-04-21T03:10:22;19.80;42.20
32753;DHT22;19121;52.428;10.816;2023-04-21T03:12:48;19.80;42.20
32753;DHT22;19121;52.428;10.816;2023-04-21T03:15:13;19.80;42.20
32753;DHT22;19121;52.428;10.816;2023-04-21T03:17:39;19.80;42.20
32753;DHT22;19121;52.428;10.816;2023-04-21T03:20:05;19.80;42.20
32753;DHT22;19121;52.428;10.816;2023-04-21T03:22:33;19.80;42.20
32753;DHT22;19121;52.428;10.816;2023-04-21T03:24:58;19.80;42.20
32753;DHT22;19121;52.428;10.816;2023-04-21T03:27:24;19.80;42.20
32753;DHT22;19121;52.428;10.816;2023-04-21T03:29:49;19.80;42.20
32753;DHT22;19121;52.428;10.816;2023-04-21T03:32:15;19.90;42.30
32753;DHT22;19121;52.428;10.816;2023-04-21T03:34:40;19.90;42.20
32753;DHT22;19121;52.428;10.816;2023-04-21T03:37:05;19.90;42.20
32753;DHT22;19121;52.428;10.816;2023-04-21T03:39:31;19.80;42.20
32753;DHT22;19121;52.428;10.816;2023-04-21T03:41:56;19.90;42.20
32753;DHT22;19121;52.428;10.816;2023-04-21T03:44:24;19.80;42.20
32753;DHT22;19121;52.428;10.816;2023-04-21T03:46:51;19.90;42.20
32753;DHT22;19121;52.428;10.816;2023-04-21T03:49:16;19.90;42.20
32753;DHT22;19121;52.428;10.816;2023-04-21T03:51:41;19.90;42.20
32753;DHT22;19121;52.428;10.816;2023-04-21T03:54:07;19.80;42.10
32753;DHT22;19121;52.428;10.816;2023-04-21T03:56:32;19.90;42.20
32753;DHT22;19121;52.428;10.816;2023-04-21T03:58:58;19.90;42.20
32753;DHT22;19121;52.428;10.816;2023-04-21T04:01:23;19.90;42.20
32753;DHT22;19121;52.428;10.816;2023-04-21T04:03:49;19.90;42.20
32753;DHT22;19121;52.428;10.816;2023-04-21T04:06:14;19.90;42.10
32753;DHT22;19121;52.428;10.816;2023-04-21T04:08:40;19.90;42.20
32753;DHT22;19121;52.428;10.816;2023-04-21T04:11:05;19.90;42.10
32753;DHT22;19121;52.428;10.816;2023-04-21T04:13:31;19.90;42.10
32753;DHT22;19121;52.428;10.816;2023-04-21T04:15:56;19.90;42.10
32753;DHT22;19121;52.428;10.816;2023-04-21T04:18:22;19.90;42.10
32753;DHT22;19121;52.428;10.816;2023-04-21T04:20:48;19.90;42.10
32753;DHT22;19121;52.428;10.816;2023-04-21T04:23:13;19.90;42.10
32753;DHT22;19121;52.428;10.816;2023-04-21T04:25:39;19.90;42.10
32753;DHT22;19121;52.428;10.816;2023-04-21T04:28:04;20.00;42.10
32753;DHT22;19121;52.428;10.816;2023-04-21T04:30:31;19.90;42.10
32753;DHT22;19121;52.428;10.816;2023-04-21T04:32:57;19.90;42.10
32753;DHT22;19121;52.428;10.816;2023-04-21T04:35:23;19.90;42.10
32753;DHT22;19121;52.428;10.816;2023-04-21T04:37:48;20.00;42.10
32753;DHT22;19121;52.428;10.816;2023-04-21T04:40:14;19.90;42.00
32753;DHT22;19121;52.428;10.816;2023-04-21T04:42:40;20.00;42.10
32753;DHT22;19121;52.428;10.816;2023-04-21T04:45:06;20.00;42.10
32753;DHT22;19121;52.428;10.816;2023-04-21T04:47:35;20.00;42.10
32753;DHT22;19121;52.428;10.816;2023-04-21T04:50:01;20.00;42.00
32753;DHT22;19121;52.428;10.816;2023-04-21T04:52:27;20.00;42.00
32753;DHT22;19121;52.428;10.816;2023-04-21T04:54:52;20.00;42.00
32753;DHT22;19121;52.428;10.816;2023-04-21T04:57:17;20.00;42.00
32753;DHT22;19121;52.428;10.816;2023-04-21T04:59:43;20.00;42.00
32753;DHT22;19121;52.428;10.816;2023-04-21T05:02:09;20.00;42.00
32753;DHT22;19121;52.428;10.816;2023-04-21T05:04:34;20.00;41.90
32753;DHT22;19121;52.428;10.816;2023-04-21T05:07:00;20.00;41.90
32753;DHT22;19121;52.428;10.816;2023-04-21T05:09:25;20.10;41.90
32753;DHT22;19121;52.428;10.816;2023-04-21T05:11:51;20.10;41.90
32753;DHT22;19121;52.428;10.816;2023-04-21T05:14:16;20.10;41.90
32753;DHT22;19121;52.428;10.816;2023-04-21T05:16:42;20.10;41.80
32753;DHT22;19121;52.428;10.816;2023-04-21T05:19:07;20.10;41.80
32753;DHT22;19121;52.428;10.816;2023-04-21T05:21:33;20.10;41.80
32753;DHT22;19121;52.428;10.816;2023-04-21T05:23:58;20.10;41.80
32753;DHT22;19121;52.428;10.816;2023-04-21T05:26:24;20.20;41.80
32753;DHT22;19121;52.428;10.816;2023-04-21T05:28:52;20.20;41.70
32753;DHT22;19121;52.428;10.816;2023-04-21T05:31:17;20.20;41.80
32753;DHT22;19121;52.428;10.816;2023-04-21T05:33:42;20.20;41.70
32753;DHT22;19121;52.428;10.816;2023-04-21T05:36:08;20.20;41.70
32753;DHT22;19121;52.428;10.816;2023-04-21T05:38:34;20.20;41.70
32753;DHT22;19121;52.428;10.816;2023-04-21T05:41:00;20.20;41.70
32753;DHT22;19121;52.428;10.816;2023-04-21T05:43:25;20.30;41.70
32753;DHT22;19121;52.428;10.816;2023-04-21T05:45:51;20.30;41.60
32753;DHT22;19121;52.428;10.816;2023-04-21T05:48:16;20.30;41.60
32753;DHT22;19121;52.428;10.816;2023-04-21T05:50:41;20.40;41.60
32753;DHT22;19121;52.428;10.816;2023-04-21T05:53:07;20.40;41.60
32753;DHT22;19121;52.428;10.816;2023-04-21T05:55:32;20.40;41.60
32753;DHT22;19121;52.428;10.816;2023-04-21T05:57:58;20.40;41.60
32753;DHT22;19121;52.428;10.816;2023-04-21T06:00:23;20.50;41.60
32753;DHT22;19121;52.428;10.816;2023-04-21T06:02:49;20.50;41.60
32753;DHT22;19121;52.428;10.816;2023-04-21T06:05:15;20.60;41.50
32753;DHT22;19121;52.428;10.816;2023-04-21T06:07:40;20.60;41.50
32753;DHT22;19121;52.428;10.816;2023-04-21T06:10:06;20.60;41.50
32753;DHT22;19121;52.428;10.816;2023-04-21T06:12:31;20.70;41.50
32753;DHT22;19121;52.428;10.816;2023-04-21T06:14:57;20.70;41.50
32753;DHT22;19121;52.428;10.816;2023-04-21T06:17:23;20.70;41.50
32753;DHT22;19121;52.428;10.816;2023-04-21T06:19:49;20.80;41.70
32753;DHT22;19121;52.428;10.816;2023-04-21T06:22:18;20.80;41.80
32753;DHT22;19121;52.428;10.816;2023-04-21T06:24:43;20.90;41.80
32753;DHT22;19121;52.428;10.816;2023-04-21T06:27:09;20.90;41.90
32753;DHT22;19121;52.428;10.816;2023-04-21T06:29:36;20.90;41.80
32753;DHT22;19121;52.428;10.816;2023-04-21T06:32:01;21.00;42.00
32753;DHT22;19121;52.428;10.816;2023-04-21T06:34:27;21.00;42.00
32753;DHT22;19121;52.428;10.816;2023-04-21T06:36:52;21.00;41.90
32753;DHT22;19121;52.428;10.816;2023-04-21T06:39:17;21.00;41.90
32753;DHT22;19121;52.428;10.816;2023-04-21T06:41:43;21.00;42.00
32753;DHT22;19121;52.428;10.816;2023-04-21T06:44:08;20.90;42.00
32753;DHT22;19121;52.428;10.816;2023-04-21T06:46:41;20.90;42.00
32753;DHT22;19121;52.428;10.816;2023-04-21T06:49:07;20.80;42.20
32753;DHT22;19121;52.428;10.816;2023-04-21T06:51:32;20.80;42.10
32753;DHT22;19121;52.428;10.816;2023-04-21T06:53:58;20.70;42.20
32753;DHT22;19121;52.428;10.816;2023-04-21T06:56:25;20.60;42.50
32753;DHT22;19121;52.428;10.816;2023-04-21T06:58:50;20.40;42.70
32753;DHT22;19121;52.428;10.816;2023-04-21T07:01:16;20.50;43.50
32753;DHT22;19121;52.428;10.816;2023-04-21T07:03:41;20.60;43.70
32753;DHT22;19121;52.428;10.816;2023-04-21T07:06:07;20.70;43.50
32753;DHT22;19121;52.428;10.816;2023-04-21T07:08:32;20.80;43.30
32753;DHT22;19121;52.428;10.816;2023-04-21T07:10:57;20.90;43.10
32753;DHT22;19121;52.428;10.816;2023-04-21T07:13:23;21.00;43.00
32753;DHT22;19121;52.428;10.816;2023-04-21T07:15:48;21.10;42.80
32753;DHT22;19121;52.428;10.816;2023-04-21T07:18:14;21.10;42.70
32753;DHT22;19121;52.428;10.816;2023-04-21T07:20:39;21.20;42.70
32753;DHT22;19121;52.428;10.816;2023-04-21T07:23:05;21.30;42.60
32753;DHT22;19121;52.428;10.816;2023-04-21T07:25:30;21.40;42.60
32753;DHT22;19121;52.428;10.816;2023-04-21T07:27:56;21.40;42.50
32753;DHT22;19121;52.428;10.816;2023-04-21T07:30:21;21.40;42.50
32753;DHT22;19121;52.428;10.816;2023-04-21T07:32:47;21.50;42.40
32753;DHT22;19121;52.428;10.816;2023-04-21T07:35:12;21.50;42.40
32753;DHT22;19121;52.428;10.816;2023-04-21T07:37:38;21.60;42.30
32753;DHT22;19121;52.428;10.816;2023-04-21T07:40:05;21.60;42.20
32753;DHT22;19121;52.428;10.816;2023-04-21T07:42:31;21.70;42.20
32753;DHT22;19121;52.428;10.816;2023-04-21T07:44:56;21.70;42.20
32753;DHT22;19121;52.428;10.816;2023-04-21T07:47:22;21.80;42.10
32753;DHT22;19121;52.428;10.816;2023-04-21T07:49:47;21.80;42.10
32753;DHT22;19121;52.428;10.816;2023-04-21T07:52:13;21.80;42.00
32753;DHT22;19121;52.428;10.816;2023-04-21T07:54:38;21.90;42.00
32753;DHT22;19121;52.428;10.816;2023-04-21T07:57:03;21.90;42.00
32753;DHT22;19121;52.428;10.816;2023-04-21T07:59:29;21.90;42.00
32753;DHT22;19121;52.428;10.816;2023-04-21T08:01:54;22.00;42.00
32753;DHT22;19121;52.428;10.816;2023-04-21T08:04:20;22.00;41.80
32753;DHT22;19121;52.428;10.816;2023-04-21T08:06:46;22.10;41.80
32753;DHT22;19121;52.428;10.816;2023-04-21T08:09:11;22.10;41.70
32753;DHT22;19121;52.428;10.816;2023-04-21T08:11:37;22.10;41.70
32753;DHT22;19121;52.428;10.816;2023-04-21T08:14:02;22.10;41.60
32753;DHT22;19121;52.428;10.816;2023-04-21T08:16:28;22.10;41.60
32753;DHT22;19121;52.428;10.816;2023-04-21T08:18:53;22.10;41.60
32753;DHT22;19121;52.428;10.816;2023-04-21T08:21:19;22.10;41.50
32753;DHT22;19121;52.428;10.816;2023-04-21T08:23:44;22.10;41.50
32753;DHT22;19121;52.428;10.816;2023-04-21T08:26:10;22.10;41.40
32753;DHT22;19121;52.428;10.816;2023-04-21T08:28:35;22.00;41.40
32753;DHT22;19121;52.428;10.816;2023-04-21T08:31:01;22.10;41.30
32753;DHT22;19121;52.428;10.816;2023-04-21T08:33:26;22.10;41.30
32753;DHT22;19121;52.428;10.816;2023-04-21T08:35:52;22.10;41.30
32753;DHT22;19121;52.428;10.816;2023-04-21T08:38:18;22.10;41.30
32753;DHT22;19121;52.428;10.816;2023-04-21T08:40:43;22.10;41.20
32753;DHT22;19121;52.428;10.816;2023-04-21T08:43:09;22.10;41.20
32753;DHT22;19121;52.428;10.816;2023-04-21T08:45:35;22.10;41.20
32753;DHT22;19121;52.428;10.816;2023-04-21T08:48:01;22.10;41.20
32753;DHT22;19121;52.428;10.816;2023-04-21T08:50:29;22.10;41.20
32753;DHT22;19121;52.428;10.816;2023-04-21T08:52:55;22.10;41.30
32753;DHT22;19121;52.428;10.816;2023-04-21T08:55:30;22.10;41.30
32753;DHT22;19121;52.428;10.816;2023-04-21T08:57:55;22.10;41.30
32753;DHT22;19121;52.428;10.816;2023-04-21T09:00:21;22.10;41.30
32753;DHT22;19121;52.428;10.816;2023-04-21T09:02:57;22.10;41.30
32753;DHT22;19121;52.428;10.816;2023-04-21T09:05:23;22.10;41.40
32753;DHT22;19121;52.428;10.816;2023-04-21T09:07:49;22.10;41.40
32753;DHT22;19121;52.428;10.816;2023-04-21T09:10:14;22.10;41.40
32753;DHT22;19121;52.428;10.816;2023-04-21T09:12:49;22.10;41.40
32753;DHT22;19121;52.428;10.816;2023-04-21T09:15:14;22.10;41.40
32753;DHT22;19121;52.428;10.816;2023-04-21T09:17:40;22.10;41.50
32753;DHT22;19121;52.428;10.816;2023-04-21T09:20:12;22.10;41.50
32753;DHT22;19121;52.428;10.816;2023-04-21T09:22:39;22.10;41.50
32753;DHT22;19121;52.428;10.816;2023-04-21T09:25:04;22.10;41.40
32753;DHT22;19121;52.428;10.816;2023-04-21T09:27:29;22.10;41.40
32753;DHT22;19121;52.428;10.816;2023-04-21T09:30:00;22.10;41.50
32753;DHT22;19121;52.428;10.816;2023-04-21T09:32:26;22.10;41.50
32753;DHT22;19121;52.428;10.816;2023-04-21T09:34:51;22.20;41.50
32753;DHT22;19121;52.428;10.816;2023-04-21T09:37:17;22.20;41.40
32753;DHT22;19121;52.428;10.816;2023-04-21T09:39:45;22.20;41.40
32753;DHT22;19121;52.428;10.816;2023-04-21T09:42:11;22.20;41.40
32753;DHT22;19121;52.428;10.816;2023-04-21T09:44:36;22.20;41.40
32753;DHT22;19121;52.428;10.816;2023-04-21T09:47:02;22.10;41.40
32753;DHT22;19121;52.428;10.816;2023-04-21T09:49:29;22.10;41.40
32753;DHT22;19121;52.428;10.816;2023-04-21T09:51:56;22.10;41.50
32753;DHT22;19121;52.428;10.816;2023-04-21T09:54:22;22.10;41.50
32753;DHT22;19121;52.428;10.816;2023-04-21T09:56:52;22.10;41.50
32753;DHT22;19121;52.428;10.816;2023-04-21T09:59:18;22.10;41.50
32753;DHT22;19121;52.428;10.816;2023-04-21T10:01:44;22.10;41.50
32753;DHT22;19121;52.428;10.816;2023-04-21T10:04:12;22.00;41.50
32753;DHT22;19121;52.428;10.816;2023-04-21T10:06:38;22.00;41.60
32753;DHT22;19121;52.428;10.816;2023-04-21T10:09:04;22.00;41.60
32753;DHT22;19121;52.428;10.816;2023-04-21T10:11:29;22.00;41.60
32753;DHT22;19121;52.428;10.816;2023-04-21T10:13:57;22.00;41.60
32753;DHT22;19121;52.428;10.816;2023-04-21T10:16:22;22.00;41.50
32753;DHT22;19121;52.428;10.816;2023-04-21T10:18:48;22.00;41.70
32753;DHT22;19121;52.428;10.816;2023-04-21T10:21:17;21.90;41.70
32753;DHT22;19121;52.428;10.816;2023-04-21T10:23:46;21.90;41.70
32753;DHT22;19121;52.428;10.816;2023-04-21T10:26:12;21.90;41.70
32753;DHT22;19121;52.428;10.816;2023-04-21T10:28:39;22.00;41.70
32753;DHT22;19121;52.428;10.816;2023-04-21T10:31:18;21.90;41.70
32753;DHT22;19121;52.428;10.816;2023-04-21T10:34:17;21.90;41.70
32753;DHT22;19121;52.428;10.816;2023-04-21T10:39:25;21.90;41.70
32753;DHT22;19121;52.428;10.816;2023-04-21T10:41:53;21.90;41.70
32753;DHT22;19121;52.428;10.816;2023-04-21T10:44:19;21.90;41.70
32753;DHT22;19121;52.428;10.816;2023-04-21T10:46:46;21.80;41.70
32753;DHT22;19121;52.428;10.816;2023-04-21T10:54:28;21.80;41.70
32753;DHT22;19121;52.428;10.816;2023-04-21T10:56:54;21.80;41.60
32753;DHT22;19121;52.428;10.816;2023-04-21T10:59:20;21.80;41.60
32753;DHT22;19121;52.428;10.816;2023-04-21T11:01:45;21.80;41.80
32753;DHT22;19121;52.428;10.816;2023-04-21T11:04:14;21.70;41.80
32753;DHT22;19121;52.428;10.816;2023-04-21T11:06:40;21.80;41.70
32753;DHT22;19121;52.428;10.816;2023-04-21T11:09:06;21.80;41.60
32753;DHT22;19121;52.428;10.816;2023-04-21T11:11:31;21.80;41.50
32753;DHT22;19121;52.428;10.816;2023-04-21T11:13:59;21.70;41.50
32753;DHT22;19121;52.428;10.816;2023-04-21T11:16:25;21.80;41.50
32753;DHT22;19121;52.428;10.816;2023-04-21T11:18:51;21.70;41.40
32753;DHT22;19121;52.428;10.816;2023-04-21T11:21:17;21.70;41.20
32753;DHT22;19121;52.428;10.816;2023-04-21T11:23:52;21.70;41.40
32753;DHT22;19121;52.428;10.816;2023-04-21T11:26:18;21.70;41.40
32753;DHT22;19121;52.428;10.816;2023-04-21T11:28:53;21.70;41.50
32753;DHT22;19121;52.428;10.816;2023-04-21T11:31:18;21.60;41.50
32753;DHT22;19121;52.428;10.816;2023-04-21T11:33:44;21.60;41.20
32753;DHT22;19121;52.428;10.816;2023-04-21T11:36:09;21.60;41.20
32753;DHT22;19121;52.428;10.816;2023-04-21T11:38:35;21.60;41.30
32753;DHT22;19121;52.428;10.816;2023-04-21T11:41:01;21.60;41.40
32753;DHT22;19121;52.428;10.816;2023-04-21T11:43:26;21.60;41.20
32753;DHT22;19121;52.428;10.816;2023-04-21T11:45:52;21.70;41.10
32753;DHT22;19121;52.428;10.816;2023-04-21T11:48:17;21.60;41.10
32753;DHT22;19121;52.428;10.816;2023-04-21T11:50:49;21.70;41.10
32753;DHT22;19121;52.428;10.816;2023-04-21T11:53:15;21.60;41.10
32753;DHT22;19121;52.428;10.816;2023-04-21T11:55:41;21.70;41.20
32753;DHT22;19121;52.428;10.816;2023-04-21T11:58:07;21.60;41.10
32753;DHT22;19121;52.428;10.816;2023-04-21T12:00:32;21.60;41.10
32753;DHT22;19121;52.428;10.816;2023-04-21T12:02:58;21.60;41.00
32753;DHT22;19121;52.428;10.816;2023-04-21T12:05:23;21.60;41.10
32753;DHT22;19121;52.428;10.816;2023-04-21T12:07:48;21.60;40.90
32753;DHT22;19121;52.428;10.816;2023-04-21T12:10:19;21.60;40.80
32753;DHT22;19121;52.428;10.816;2023-04-21T12:12:45;21.60;40.90
32753;DHT22;19121;52.428;10.816;2023-04-21T12:15:17;21.60;41.00
32753;DHT22;19121;52.428;10.816;2023-04-21T12:17:43;21.60;41.00
32753;DHT22;19121;52.428;10.816;2023-04-21T12:20:09;21.60;41.00
32753;DHT22;19121;52.428;10.816;2023-04-21T12:22:35;21.60;41.00
32753;DHT22;19121;52.428;10.816;2023-04-21T12:25:00;21.60;40.90
32753;DHT22;19121;52.428;10.816;2023-04-21T12:27:26;21.60;41.00
32753;DHT22;19121;52.428;10.816;2023-04-21T12:29:51;21.60;41.10
32753;DHT22;19121;52.428;10.816;2023-04-21T12:32:17;21.60;40.90
32753;DHT22;19121;52.428;10.816;2023-04-21T12:34:42;21.60;41.00
32753;DHT22;19121;52.428;10.816;2023-04-21T12:37:08;21.60;41.10
32753;DHT22;19121;52.428;10.816;2023-04-21T12:39:33;21.60;41.10
32753;DHT22;19121;52.428;10.816;2023-04-21T12:41:59;21.60;40.90
32753;DHT22;19121;52.428;10.816;2023-04-21T12:44:24;21.70;40.90
32753;DHT22;19121;52.428;10.816;2023-04-21T12:46:50;21.60;40.80
32753;DHT22;19121;52.428;10.816;2023-04-21T12:49:16;21.70;40.90
32753;DHT22;19121;52.428;10.816;2023-04-21T12:51:42;21.60;40.80
32753;DHT22;19121;52.428;10.816;2023-04-21T12:54:07;21.60;40.90
32753;DHT22;19121;52.428;10.816;2023-04-21T12:56:33;21.60;41.00
32753;DHT22;19121;52.428;10.816;2023-04-21T12:58:58;21.70;41.00
32753;DHT22;19121;52.428;10.816;2023-04-21T13:01:23;21.70;40.90
32753;DHT22;19121;52.428;10.816;2023-04-21T13:03:49;21.60;40.90
32753;DHT22;19121;52.428;10.816;2023-04-21T13:06:14;21.60;40.90
32753;DHT22;19121;52.428;10.816;2023-04-21T13:08:40;21.60;40.90
32753;DHT22;19121;52.428;10.816;2023-04-21T13:11:05;21.60;41.00
32753;DHT22;19121;52.428;10.816;2023-04-21T13:13:31;21.60;40.70
32753;DHT22;19121;52.428;10.816;2023-04-21T13:15:56;21.60;40.50
32753;DHT22;19121;52.428;10.816;2023-04-21T13:18:22;21.60;40.40
32753;DHT22;19121;52.428;10.816;2023-04-21T13:20:47;21.70;40.50
32753;DHT22;19121;52.428;10.816;2023-04-21T13:23:13;21.70;40.50
32753;DHT22;19121;52.428;10.816;2023-04-21T13:25:39;21.70;40.50
32753;DHT22;19121;52.428;10.816;2023-04-21T13:28:04;21.70;40.60
32753;DHT22;19121;52.428;10.816;2023-04-21T13:30:31;21.70;40.60
32753;DHT22;19121;52.428;10.816;2023-04-21T13:32:57;21.70;40.60
32753;DHT22;19121;52.428;10.816;2023-04-21T13:35:22;21.70;40.60
32753;DHT22;19121;52.428;10.816;2023-04-21T13:37:48;21.80;40.70
32753;DHT22;19121;52.428;10.816;2023-04-21T13:40:14;21.80;40.70
32753;DHT22;19121;52.428;10.816;2023-04-21T13:42:39;21.80;40.70
32753;DHT22;19121;52.428;10.816;2023-04-21T13:45:05;21.80;40.70
32753;DHT22;19121;52.428;10.816;2023-04-21T13:47:31;21.80;40.70
32753;DHT22;19121;52.428;10.816;2023-04-21T13:49:57;21.80;40.60
32753;DHT22;19121;52.428;10.816;2023-04-21T13:52:22;21.80;40.70
32753;DHT22;19121;52.428;10.816;2023-04-21T13:54:49;21.80;40.70
32753;DHT22;19121;52.428;10.816;2023-04-21T13:57:15;21.80;40.70
32753;DHT22;19121;52.428;10.816;2023-04-21T13:59:41;21.80;40.60
32753;DHT22;19121;52.428;10.816;2023-04-21T14:02:06;21.80;40.60
32753;DHT22;19121;52.428;10.816;2023-04-21T14:04:32;21.80;40.60
32753;DHT22;19121;52.428;10.816;2023-04-21T14:06:57;21.80;40.60
32753;DHT22;19121;52.428;10.816;2023-04-21T14:09:24;21.80;40.60
32753;DHT22;19121;52.428;10.816;2023-04-21T14:11:49;21.80;40.60
32753;DHT22;19121;52.428;10.816;2023-04-21T14:14:15;21.80;40.60
32753;DHT22;19121;52.428;10.816;2023-04-21T14:16:41;21.80;40.60
32753;DHT22;19121;52.428;10.816;2023-04-21T14:19:06;21.80;40.60
32753;DHT22;19121;52.428;10.816;2023-04-21T14:21:31;21.80;40.70
32753;DHT22;19121;52.428;10.816;2023-04-21T14:23:57;21.80;40.70
32753;DHT22;19121;52.428;10.816;2023-04-21T14:26:22;21.80;40.70
32753;DHT22;19121;52.428;10.816;2023-04-21T14:28:48;21.80;40.70
32753;DHT22;19121;52.428;10.816;2023-04-21T14:31:14;21.80;40.70
32753;DHT22;19121;52.428;10.816;2023-04-21T14:33:39;21.80;40.70
32753;DHT22;19121;52.428;10.816;2023-04-21T14:36:05;21.80;40.70
32753;DHT22;19121;52.428;10.816;2023-04-21T14:38:32;21.80;40.70
32753;DHT22;19121;52.428;10.816;2023-04-21T14:40:57;21.80;40.70
32753;DHT22;19121;52.428;10.816;2023-04-21T14:43:22;21.80;40.70
32753;DHT22;19121;52.428;10.816;2023-04-21T14:45:48;21.80;40.70
32753;DHT22;19121;52.428;10.816;2023-04-21T14:48:13;21.80;40.70
32753;DHT22;19121;52.428;10.816;2023-04-21T14:50:39;21.80;40.70
32753;DHT22;19121;52.428;10.816;2023-04-21T14:53:05;21.80;40.70
32753;DHT22;19121;52.428;10.816;2023-04-21T14:55:31;21.80;40.70
32753;DHT22;19121;52.428;10.816;2023-04-21T14:57:56;21.80;40.70
32753;DHT22;19121;52.428;10.816;2023-04-21T15:00:21;21.80;40.70
32753;DHT22;19121;52.428;10.816;2023-04-21T15:02:47;21.80;40.80
32753;DHT22;19121;52.428;10.816;2023-04-21T15:05:13;21.80;40.70
32753;DHT22;19121;52.428;10.816;2023-04-21T15:07:39;21.80;40.70
32753;DHT22;19121;52.428;10.816;2023-04-21T15:10:05;21.80;40.70
32753;DHT22;19121;52.428;10.816;2023-04-21T15:12:31;21.80;40.70
32753;DHT22;19121;52.428;10.816;2023-04-21T15:14:56;21.80;40.70